createdAt,value
2022-08-25T00:00:19.089Z,1.55
2022-08-25T00:02:55.030Z,1.55
2022-08-25T00:05:27.392Z,1.42
2022-08-25T00:07:57.585Z,1.25
2022-08-25T00:10:25.620Z,1.45
2022-08-25T00:12:56.656Z,1.33
2022-08-25T00:15:24.700Z,1.65
2022-08-25T00:17:53.668Z,1.20
2022-08-25T00:20:22.512Z,1.40
2022-08-25T00:22:52.064Z,1.30
2022-08-25T00:25:20.676Z,1.40
2022-08-25T00:27:49.077Z,1.50
2022-08-25T00:30:18.241Z,1.40
2022-08-25T00:32:56.882Z,1.30
2022-08-25T00:35:27.299Z,1.25
2022-08-25T00:37:56.744Z,1.70
2022-08-25T00:40:27.455Z,1.65
2022-08-25T00:42:56.182Z,1.80
2022-08-25T00:45:25.104Z,1.70
2022-08-25T00:47:53.048Z,2.05
2022-08-25T00:50:21.508Z,1.95
2022-08-25T00:52:54.065Z,2.20
2022-08-25T00:55:28.237Z,2.75
2022-08-25T00:57:59.200Z,2.30
2022-08-25T01:00:32.106Z,1.60
2022-08-25T01:03:01.748Z,1.98
2022-08-25T01:05:30.433Z,2.20
2022-08-25T01:08:03.237Z,1.65
2022-08-25T01:10:37.756Z,1.88
2022-08-25T01:13:16.369Z,1.77
2022-08-25T01:15:45.319Z,2.05
2022-08-25T01:18:13.502Z,1.85
2022-08-25T01:20:42.133Z,1.90
2022-08-25T01:23:11.413Z,1.80
2022-08-25T01:25:47.139Z,1.67
2022-08-25T01:28:15.856Z,2.40
2022-08-25T01:30:44.203Z,1.75
2022-08-25T01:33:13.380Z,1.75
2022-08-25T01:35:42.309Z,1.50
2022-08-25T01:38:13.599Z,1.52
2022-08-25T01:40:43.007Z,1.80
2022-08-25T01:43:18.594Z,1.90
2022-08-25T01:45:48.905Z,1.83
2022-08-25T01:48:19.715Z,1.90
2022-08-25T01:50:47.750Z,1.50
2022-08-25T01:53:23.759Z,1.55
2022-08-25T01:56:01.785Z,1.60
2022-08-25T01:58:33.312Z,1.60
2022-08-25T02:01:08.417Z,1.70
2022-08-25T02:03:42.269Z,1.60
2022-08-25T02:06:12.768Z,1.65
2022-08-25T02:08:43.688Z,1.70
2022-08-25T02:11:13.186Z,1.70
2022-08-25T02:13:41.573Z,1.80
2022-08-25T02:16:12.023Z,1.58
2022-08-25T02:18:40.016Z,1.77
2022-08-25T02:21:08.029Z,1.95
2022-08-25T02:23:36.325Z,1.80
2022-08-25T02:26:05.916Z,1.88
2022-08-25T02:28:34.013Z,1.77
2022-08-25T02:31:02.790Z,1.80
2022-08-25T02:33:34.281Z,1.55
2022-08-25T02:36:02.707Z,2.08
2022-08-25T02:38:31.329Z,1.38
2022-08-25T02:41:00.606Z,2.05
2022-08-25T02:43:30.403Z,1.35
2022-08-25T02:45:59.659Z,1.70
2022-08-25T02:48:27.594Z,1.73
2022-08-25T02:51:00.933Z,1.30
2022-08-25T02:53:30.003Z,1.50
2022-08-25T02:55:58.036Z,1.60
2022-08-25T02:58:26.710Z,1.55
2022-08-25T03:00:57.668Z,1.80
2022-08-25T03:03:25.770Z,1.50
2022-08-25T03:05:55.097Z,1.80
2022-08-25T03:08:23.430Z,1.50
2022-08-25T03:10:52.039Z,1.70
2022-08-25T03:13:20.101Z,1.60
2022-08-25T03:15:48.008Z,1.75
2022-08-25T03:18:19.142Z,1.52
2022-08-25T03:20:47.506Z,1.50
2022-08-25T03:23:15.741Z,1.70
2022-08-25T03:26:01.854Z,1.33
2022-08-25T03:28:31.229Z,1.42
2022-08-25T03:31:00.303Z,1.60
2022-08-25T03:33:31.221Z,1.73
2022-08-25T03:36:00.126Z,1.60
2022-08-25T03:38:29.161Z,1.63
2022-08-25T03:40:57.769Z,1.30
2022-08-25T03:43:25.616Z,1.52
2022-08-25T03:45:53.595Z,1.83
2022-08-25T03:48:21.777Z,1.45
2022-08-25T03:50:54.779Z,1.30
2022-08-25T03:53:23.377Z,1.52
2022-08-25T03:55:51.634Z,1.58
2022-08-25T03:58:19.670Z,1.65
2022-08-25T04:00:47.812Z,1.40
2022-08-25T04:03:15.764Z,1.52
2022-08-25T04:05:44.121Z,1.50
2022-08-25T04:08:14.980Z,1.77
2022-08-25T04:10:42.936Z,1.52
2022-08-25T04:13:12.401Z,1.55
2022-08-25T04:15:44.064Z,1.50
2022-08-25T04:18:13.502Z,1.50
2022-08-25T04:20:46.370Z,1.80
2022-08-25T04:23:16.653Z,1.63
2022-08-25T04:25:46.136Z,1.55
2022-08-25T04:28:14.297Z,1.80
2022-08-25T04:30:44.210Z,1.70
2022-08-25T04:33:13.170Z,1.75
2022-08-25T04:35:41.504Z,1.80
2022-08-25T04:38:09.518Z,1.40
2022-08-25T04:40:38.997Z,2.13
2022-08-25T04:43:07.292Z,1.80
2022-08-25T04:45:38.553Z,1.80
2022-08-25T04:48:06.952Z,2.05
2022-08-25T04:50:34.998Z,1.65
2022-08-25T04:53:03.035Z,1.83
2022-08-25T04:55:30.869Z,1.92
2022-08-25T04:58:00.185Z,1.92
2022-08-25T05:00:28.481Z,1.90
2022-08-25T05:02:56.357Z,2.20
2022-08-25T05:05:24.771Z,1.70
2022-08-25T05:07:53.044Z,1.50
2022-08-25T05:10:21.407Z,1.50
2022-08-25T05:12:50.383Z,1.60
2022-08-25T05:15:37.610Z,1.90
2022-08-25T05:18:05.839Z,1.67
2022-08-25T05:20:37.163Z,1.58
2022-08-25T05:23:05.743Z,1.80
2022-08-25T05:25:36.260Z,1.40
2022-08-25T05:28:04.895Z,1.10
2022-08-25T05:30:34.697Z,0.95
2022-08-25T05:33:03.257Z,1.27
2022-08-25T05:35:31.148Z,1.20
2022-08-25T05:37:59.187Z,1.20
2022-08-25T05:40:27.215Z,1.15
2022-08-25T05:42:55.634Z,1.33
2022-08-25T05:45:24.283Z,1.20
2022-08-25T05:47:53.781Z,1.10
2022-08-25T05:50:22.049Z,1.00
2022-08-25T05:52:49.999Z,1.00
2022-08-25T05:55:18.137Z,1.00
2022-08-25T05:57:46.042Z,0.90
2022-08-25T06:00:14.756Z,1.00
2022-08-25T06:02:42.037Z,1.85
2022-08-25T06:05:13.701Z,1.00
2022-08-25T06:07:42.603Z,0.88
2022-08-25T06:10:13.442Z,1.00
2022-08-25T06:12:44.621Z,0.82
2022-08-25T06:15:14.621Z,1.20
2022-08-25T06:17:43.045Z,0.93
2022-08-25T06:20:16.226Z,0.85
2022-08-25T06:22:44.227Z,0.85
2022-08-25T06:25:14.496Z,0.93
2022-08-25T06:27:42.789Z,1.10
2022-08-25T06:30:15.029Z,0.90
2022-08-25T06:32:46.220Z,0.95
2022-08-25T06:35:19.924Z,0.82
2022-08-25T06:37:48.826Z,0.93
2022-08-25T06:40:17.498Z,1.10
2022-08-25T06:42:50.099Z,0.82
2022-08-25T06:45:18.653Z,1.08
2022-08-25T06:47:46.621Z,0.90
2022-08-25T06:50:16.051Z,1.08
2022-08-25T06:52:44.103Z,1.10
2022-08-25T06:55:12.461Z,0.93
2022-08-25T06:57:40.650Z,0.85
2022-08-25T07:00:10.866Z,0.98
2022-08-25T07:02:40.699Z,0.93
2022-08-25T07:05:13.240Z,0.90
2022-08-25T07:07:44.836Z,1.33
2022-08-25T07:10:13.809Z,0.98
2022-08-25T07:12:47.408Z,0.95
2022-08-25T07:15:20.398Z,0.80
2022-08-25T07:17:49.741Z,0.80
2022-08-25T07:20:19.407Z,0.90
2022-08-25T07:22:49.397Z,0.70
2022-08-25T07:25:18.143Z,0.75
2022-08-25T07:27:46.616Z,0.80
2022-08-25T07:30:14.838Z,0.88
2022-08-25T07:32:43.140Z,0.70
2022-08-25T07:35:19.040Z,0.60
2022-08-25T07:37:53.233Z,0.70
2022-08-25T07:40:23.794Z,0.88
2022-08-25T07:42:53.820Z,0.73
2022-08-25T07:45:25.625Z,0.75
2022-08-25T07:47:53.902Z,0.55
2022-08-25T07:50:22.545Z,0.70
2022-08-25T07:52:55.253Z,0.75
2022-08-25T07:55:24.735Z,0.73
2022-08-25T07:58:02.540Z,0.60
2022-08-25T08:00:33.397Z,0.60
2022-08-25T08:03:03.986Z,0.60
2022-08-25T08:05:32.406Z,0.57
2022-08-25T08:08:02.698Z,0.63
2022-08-25T08:10:53.809Z,0.57
2022-08-25T08:13:19.342Z,0.45
2022-08-25T08:15:49.298Z,0.50
2022-08-25T08:18:18.331Z,0.45
2022-08-25T08:20:47.566Z,0.60
2022-08-25T08:23:18.335Z,0.40
2022-08-25T08:25:46.326Z,0.43
2022-08-25T08:28:14.361Z,0.40
2022-08-25T08:30:53.094Z,0.70
2022-08-25T08:33:23.524Z,0.60
2022-08-25T08:35:59.095Z,0.40
2022-08-25T08:38:29.129Z,0.60
2022-08-25T08:42:07.250Z,0.80
2022-08-25T08:44:31.193Z,0.70
2022-08-25T08:47:08.919Z,0.50
2022-08-25T08:49:50.743Z,0.55
2022-08-25T08:52:23.903Z,0.40
2022-08-25T08:55:01.602Z,0.60
2022-08-25T08:57:39.653Z,0.50
2022-08-25T09:00:09.426Z,0.50
2022-08-25T09:02:50.489Z,0.57
2022-08-25T09:05:22.085Z,0.45
2022-08-25T09:07:56.045Z,0.40
2022-08-25T09:10:32.015Z,0.50
2022-08-25T09:13:12.105Z,0.52
2022-08-25T09:16:23.324Z,0.40
2022-08-25T09:19:21.322Z,0.50
2022-08-25T09:21:57.762Z,1.80
2022-08-25T09:24:42.301Z,0.68
2022-08-25T09:27:22.305Z,1.00
2022-08-25T09:30:00.450Z,0.70
2022-08-25T09:32:31.844Z,0.40
2022-08-25T09:35:02.976Z,0.40
2022-08-25T09:37:31.100Z,0.60
2022-08-25T09:40:00.388Z,0.90
2022-08-25T09:42:57.906Z,0.47
2022-08-25T09:45:42.517Z,0.50
2022-08-25T09:48:29.128Z,0.50
2022-08-25T09:51:02.480Z,0.57
2022-08-25T09:53:33.685Z,0.60
2022-08-25T09:56:06.901Z,0.70
2022-08-25T09:58:36.370Z,0.98
2022-08-25T10:01:13.172Z,0.65
2022-08-25T10:03:57.105Z,0.50
2022-08-25T10:06:26.476Z,0.70
2022-08-25T10:08:59.489Z,0.85
2022-08-25T10:11:48.800Z,1.52
2022-08-25T10:14:22.695Z,0.90
2022-08-25T10:16:53.520Z,0.90
2022-08-25T10:19:28.332Z,0.70
2022-08-25T10:22:10.846Z,0.50
2022-08-25T10:24:44.192Z,0.63
2022-08-25T10:27:27.421Z,0.60
2022-08-25T10:30:09.670Z,0.93
2022-08-25T10:32:50.388Z,1.48
2022-08-25T10:35:24.275Z,1.60
2022-08-25T10:38:04.389Z,0.40
2022-08-25T10:40:40.649Z,0.55
2022-08-25T10:43:19.130Z,0.70
2022-08-25T10:45:53.235Z,0.50
2022-08-25T10:48:39.555Z,0.30
2022-08-25T10:51:25.691Z,0.60
2022-08-25T10:54:02.156Z,0.90
2022-08-25T10:56:35.348Z,0.80
2022-08-25T10:59:25.461Z,0.63
2022-08-25T11:02:19.903Z,5.07
2022-08-25T11:04:54.667Z,1.20
2022-08-25T11:07:28.244Z,0.70
2022-08-25T11:10:02.007Z,0.60
2022-08-25T11:12:33.485Z,0.50
2022-08-25T11:15:08.469Z,0.50
2022-08-25T11:17:44.530Z,0.50
2022-08-25T11:20:19.941Z,0.50
2022-08-25T11:23:09.300Z,0.70
2022-08-25T11:25:43.721Z,0.75
2022-08-25T11:28:15.975Z,0.77
2022-08-25T11:30:44.555Z,0.50
2022-08-25T11:33:19.577Z,0.52
2022-08-25T11:35:52.510Z,0.50
2022-08-25T11:38:36.326Z,0.40
2022-08-25T11:41:19.158Z,0.55
2022-08-25T11:44:09.858Z,0.80
2022-08-25T11:46:52.230Z,0.50
2022-08-25T11:49:43.827Z,0.60
2022-08-25T11:52:46.060Z,0.50
2022-08-25T11:55:17.556Z,0.47
2022-08-25T11:57:53.937Z,0.70
2022-08-25T12:00:41.052Z,0.55
2022-08-25T12:03:46.373Z,0.40
2022-08-25T12:06:22.830Z,0.70
2022-08-25T12:08:57.783Z,0.45
2022-08-25T12:11:47.609Z,0.60
2022-08-25T12:14:19.027Z,0.50
2022-08-25T12:17:12.200Z,0.68
2022-08-25T12:19:56.726Z,0.50
2022-08-25T12:22:51.792Z,0.55
2022-08-25T12:25:38.558Z,0.57
2022-08-25T12:28:19.481Z,0.50
2022-08-25T12:30:58.211Z,0.60
2022-08-25T12:33:39.765Z,0.40
2022-08-25T12:36:11.156Z,0.43
2022-08-25T12:38:50.873Z,0.80
2022-08-25T12:41:24.347Z,0.70
2022-08-25T12:43:54.645Z,0.45
2022-08-25T12:46:37.692Z,0.40
2022-08-25T12:49:13.045Z,0.50
2022-08-25T12:51:57.406Z,0.50
2022-08-25T12:54:40.385Z,0.60
2022-08-25T12:57:38.002Z,0.40
2022-08-25T13:00:18.490Z,0.50
2022-08-25T13:03:22.135Z,0.40
2022-08-25T13:06:16.361Z,0.57
2022-08-25T13:09:34.948Z,0.85
2022-08-25T13:12:15.010Z,0.40
2022-08-25T13:14:44.712Z,0.70
2022-08-25T13:17:13.253Z,0.43
2022-08-25T13:19:41.610Z,0.50
2022-08-25T13:22:16.025Z,0.40
2022-08-25T13:24:47.422Z,0.68
2022-08-25T13:27:25.740Z,0.60
2022-08-25T13:29:58.378Z,2.00
2022-08-25T13:32:32.187Z,0.50
2022-08-25T13:35:14.273Z,0.60
2022-08-25T13:37:42.138Z,0.70
2022-08-25T13:40:12.809Z,0.60
2022-08-25T13:42:48.972Z,0.50
2022-08-25T13:45:23.850Z,0.60
2022-08-25T13:47:56.072Z,0.55
2022-08-25T13:50:34.011Z,0.55
2022-08-25T13:53:05.322Z,0.50
2022-08-25T13:55:50.704Z,0.70
2022-08-25T13:58:24.303Z,0.60
2022-08-25T14:01:22.776Z,0.60
2022-08-25T14:04:18.964Z,0.55
2022-08-25T14:06:47.726Z,0.60
2022-08-25T14:09:18.494Z,0.90
2022-08-25T14:11:58.990Z,0.77
2022-08-25T14:14:36.201Z,0.70
2022-08-25T14:17:22.396Z,0.60
2022-08-25T14:19:57.838Z,0.68
2022-08-25T14:22:26.245Z,0.70
2022-08-25T14:24:55.726Z,0.55
2022-08-25T14:27:23.851Z,0.40
2022-08-25T14:29:53.276Z,0.50
2022-08-25T14:32:21.685Z,0.70
2022-08-25T14:34:49.679Z,0.68
2022-08-25T14:37:20.238Z,0.80
2022-08-25T14:39:54.708Z,0.60
2022-08-25T14:42:25.370Z,0.50
2022-08-25T14:44:56.210Z,0.55
2022-08-25T14:47:24.791Z,0.60
2022-08-25T14:49:52.883Z,0.45
2022-08-25T14:52:26.861Z,0.50
2022-08-25T14:54:57.293Z,0.50
2022-08-25T14:57:25.609Z,0.60
2022-08-25T14:59:55.571Z,0.85
2022-08-25T15:02:30.649Z,0.50
2022-08-25T15:05:02.387Z,0.60
2022-08-25T15:07:50.247Z,0.60
2022-08-25T15:10:18.749Z,0.90
2022-08-25T15:12:53.861Z,0.80
2022-08-25T15:15:26.637Z,0.50
2022-08-25T15:17:57.019Z,0.60
2022-08-25T15:20:27.428Z,0.57
2022-08-25T15:22:57.150Z,0.80
2022-08-25T15:25:25.040Z,0.88
2022-08-25T15:27:53.207Z,0.70
2022-08-25T15:30:21.422Z,0.60
2022-08-25T15:33:00.799Z,0.60
2022-08-25T15:35:29.809Z,0.75
2022-08-25T15:37:57.748Z,0.70
2022-08-25T15:40:26.059Z,0.60
2022-08-25T15:42:54.348Z,0.82
2022-08-25T15:45:24.006Z,1.08
2022-08-25T15:48:05.929Z,1.48
2022-08-25T15:50:38.850Z,0.90
2022-08-25T15:53:10.356Z,0.70
2022-08-25T15:55:40.526Z,0.70
2022-08-25T15:58:09.121Z,0.85
2022-08-25T16:00:37.848Z,1.00
2022-08-25T16:03:08.108Z,0.88
2022-08-25T16:05:38.989Z,0.80
2022-08-25T16:08:19.118Z,1.00
2022-08-25T16:10:48.273Z,1.40
2022-08-25T16:13:18.485Z,1.10
2022-08-25T16:15:52.962Z,1.08
2022-08-25T16:18:23.396Z,0.70
2022-08-25T16:20:53.717Z,0.73
2022-08-25T16:23:22.487Z,1.00
2022-08-25T16:25:51.825Z,8.25
2022-08-25T16:28:24.458Z,3.72
2022-08-25T16:30:53.342Z,0.90
2022-08-25T16:33:22.107Z,0.63
2022-08-25T16:35:50.027Z,0.77
2022-08-25T16:38:19.339Z,0.60
2022-08-25T16:40:48.041Z,0.70
2022-08-25T16:43:17.710Z,0.80
2022-08-25T16:45:46.274Z,0.70
2022-08-25T16:48:14.533Z,0.68
2022-08-25T16:50:42.426Z,0.57
2022-08-25T16:53:28.040Z,0.70
2022-08-25T16:56:03.302Z,0.60
2022-08-25T16:58:31.620Z,0.50
2022-08-25T17:01:07.042Z,0.50
2022-08-25T17:03:37.584Z,1.65
2022-08-25T17:06:06.645Z,0.85
2022-08-25T17:08:36.953Z,0.70
2022-08-25T17:11:09.102Z,0.43
2022-08-25T17:13:37.864Z,0.60
2022-08-25T17:16:06.524Z,0.60
2022-08-25T17:18:34.788Z,0.60
2022-08-25T17:21:05.179Z,0.95
2022-08-25T17:23:34.275Z,0.68
2022-08-25T17:26:03.463Z,0.30
2022-08-25T17:28:35.206Z,0.52
2022-08-25T17:31:03.394Z,0.60
2022-08-25T17:33:31.492Z,0.50
2022-08-25T17:36:00.397Z,0.60
2022-08-25T17:38:30.292Z,0.50
2022-08-25T17:41:06.800Z,0.55
2022-08-25T17:43:37.856Z,0.50
2022-08-25T17:46:07.543Z,0.63
2022-08-25T17:48:38.026Z,0.47
2022-08-25T17:51:12.676Z,0.50
2022-08-25T17:53:44.568Z,0.30
2022-08-25T17:56:15.375Z,0.50
2022-08-25T17:58:45.237Z,0.50
2022-08-25T18:01:17.521Z,0.30
2022-08-25T18:03:45.596Z,0.60
2022-08-25T18:06:16.052Z,0.65
2022-08-25T18:08:50.297Z,0.50
2022-08-25T18:11:20.952Z,0.40
2022-08-25T18:13:52.439Z,0.40
2022-08-25T18:16:21.621Z,0.40
2022-08-25T18:18:50.047Z,0.68
2022-08-25T18:21:21.597Z,0.90
2022-08-25T18:23:51.018Z,0.50
2022-08-25T18:26:21.934Z,0.73
2022-08-25T18:28:55.991Z,0.50
2022-08-25T18:31:24.217Z,0.45
2022-08-25T18:33:52.491Z,0.50
2022-08-25T18:36:21.633Z,0.40
2022-08-25T18:39:07.637Z,0.40
2022-08-25T18:41:40.273Z,1.30
2022-08-25T18:44:10.742Z,0.60
2022-08-25T18:46:39.901Z,0.80
2022-08-25T18:49:08.465Z,0.60
2022-08-25T18:51:36.564Z,0.50
2022-08-25T18:54:05.228Z,0.50
2022-08-25T18:56:34.704Z,0.60
2022-08-25T18:59:03.484Z,0.60
2022-08-25T19:01:32.959Z,0.82
2022-08-25T19:04:01.310Z,0.70
2022-08-25T19:06:29.365Z,0.70
2022-08-25T19:08:57.752Z,0.68
2022-08-25T19:11:25.801Z,0.70
2022-08-25T19:13:54.093Z,0.80
2022-08-25T19:16:35.568Z,0.75
2022-08-25T19:19:06.434Z,0.50
2022-08-25T19:21:35.186Z,0.70
2022-08-25T19:24:03.538Z,0.70
2022-08-25T19:26:34.363Z,0.70
2022-08-25T19:29:03.579Z,0.70
2022-08-25T19:31:34.175Z,0.50
2022-08-25T19:34:03.308Z,0.60
2022-08-25T19:36:31.792Z,0.70
2022-08-25T19:39:01.697Z,0.88
2022-08-25T19:41:31.356Z,0.80
2022-08-25T19:43:59.997Z,0.90
2022-08-25T19:46:35.162Z,0.88
2022-08-25T19:49:11.605Z,0.80
2022-08-25T19:51:44.333Z,0.90
2022-08-25T19:54:17.839Z,0.90
2022-08-25T19:56:54.706Z,1.30
2022-08-25T19:59:25.397Z,1.10
2022-08-25T20:01:54.058Z,1.10
2022-08-25T20:04:24.182Z,1.15
2022-08-25T20:06:53.162Z,1.10
2022-08-25T20:09:38.874Z,1.17
2022-08-25T20:12:10.409Z,0.98
2022-08-25T20:14:38.729Z,1.92
2022-08-25T20:17:09.585Z,1.27
2022-08-25T20:19:54.360Z,1.23
2022-08-25T20:22:26.413Z,1.38
2022-08-25T20:24:58.025Z,0.98
2022-08-25T20:27:31.626Z,1.00
2022-08-25T20:30:02.721Z,1.00
2022-08-25T20:32:31.516Z,0.85
2022-08-25T20:35:01.903Z,1.15
2022-08-25T20:37:30.093Z,1.00
2022-08-25T20:39:58.037Z,1.10
2022-08-25T20:42:26.488Z,1.17
2022-08-25T20:44:54.706Z,1.45
2022-08-25T20:47:22.728Z,1.35
2022-08-25T20:49:50.754Z,1.35
2022-08-25T20:52:21.341Z,1.25
2022-08-25T20:54:51.098Z,1.20
2022-08-25T20:57:25.476Z,1.30
2022-08-25T20:59:54.634Z,1.67
2022-08-25T21:02:23.289Z,1.20
2022-08-25T21:04:52.184Z,1.40
2022-08-25T21:07:23.851Z,1.40
2022-08-25T21:09:52.630Z,1.42
2022-08-25T21:12:20.849Z,1.70
2022-08-25T21:14:49.226Z,1.65
2022-08-25T21:17:19.001Z,1.25
2022-08-25T21:22:16.888Z,1.40
2022-08-25T21:24:47.625Z,1.05
2022-08-25T21:27:15.580Z,1.58
2022-08-25T21:29:44.637Z,1.55
2022-08-25T21:32:23.748Z,1.70
2022-08-25T21:34:53.682Z,1.40
2022-08-25T21:37:21.625Z,1.15
2022-08-25T21:39:52.010Z,1.20
2022-08-25T21:42:22.370Z,1.80
2022-08-25T21:44:50.593Z,2.03
2022-08-25T21:47:21.267Z,1.75
2022-08-25T21:49:50.292Z,1.63
2022-08-25T21:52:18.547Z,1.67
2022-08-25T21:54:46.779Z,1.50
2022-08-25T21:57:19.107Z,1.80
2022-08-25T21:59:52.965Z,2.00
2022-08-25T22:02:23.207Z,1.20
2022-08-25T22:04:52.766Z,1.80
2022-08-25T22:07:24.636Z,1.63
2022-08-25T22:09:53.237Z,1.50
2022-08-25T22:12:22.680Z,1.52
2022-08-25T22:14:54.313Z,1.48
2022-08-25T22:17:24.466Z,1.52
2022-08-25T22:19:54.103Z,1.60
2022-08-25T22:22:22.926Z,1.40
2022-08-25T22:24:52.287Z,1.65
2022-08-25T22:27:23.558Z,1.77
2022-08-25T22:29:52.714Z,1.35
2022-08-25T22:32:21.187Z,1.55
2022-08-25T22:34:49.844Z,1.65
2022-08-25T22:37:19.093Z,1.85
2022-08-25T22:39:47.632Z,1.95
2022-08-25T22:42:16.565Z,1.60
2022-08-25T22:44:45.985Z,1.50
2022-08-25T22:47:15.285Z,1.50
2022-08-25T22:49:43.471Z,1.60
2022-08-25T22:52:13.187Z,2.10
2022-08-25T22:54:42.236Z,1.70
2022-08-25T22:57:10.298Z,2.00
2022-08-25T22:59:39.105Z,2.00
2022-08-25T23:02:09.218Z,1.88
2022-08-25T23:04:41.489Z,1.88
2022-08-25T23:07:12.685Z,2.10
2022-08-25T23:09:41.039Z,2.00
2022-08-25T23:12:09.858Z,1.85
2022-08-25T23:14:42.047Z,1.80
2022-08-25T23:17:14.189Z,1.50
2022-08-25T23:19:42.309Z,1.70
2022-08-25T23:22:10.561Z,1.77
2022-08-25T23:24:42.669Z,1.50
2022-08-25T23:27:13.641Z,1.67
2022-08-25T23:29:45.068Z,1.58
2022-08-25T23:32:17.010Z,1.70
2022-08-25T23:34:47.229Z,1.52
2022-08-25T23:37:18.647Z,2.00
2022-08-25T23:39:49.578Z,1.88
2022-08-25T23:42:19.292Z,2.10
2022-08-25T23:44:47.584Z,2.05
2022-08-25T23:47:17.269Z,1.83
2022-08-25T23:49:45.941Z,1.80
2022-08-25T23:52:17.932Z,1.70
2022-08-25T23:54:46.677Z,2.10
2022-08-25T23:57:15.013Z,2.25
2022-08-25T23:59:43.299Z,1.73
